sensor_id;sensor_type;location;lat;lon;timestamp;temperature;humidity
6518;DHT22;3292;48.944;9.240;2023-06-10T00:01:58;19.10;99.90
6518;DHT22;3292;48.944;9.240;2023-06-10T00:04:25;19.10;99.90
6518;DHT22;3292;48.944;9.240;2023-06-10T00:06:52;19.00;99.90
6518;DHT22;3292;48.944;9.240;2023-06-10T00:09:19;19.00;99.90
6518;DHT22;3292;48.944;9.240;2023-06-10T00:11:48;19.00;99.90
6518;DHT22;3292;48.944;9.240;2023-06-10T00:14:15;18.90;99.90
6518;DHT22;3292;48.944;9.240;2023-06-10T00:16:42;18.90;99.90
6518;DHT22;3292;48.944;9.240;2023-06-10T00:19:10;18.80;99.90
6518;DHT22;3292;48.944;9.240;2023-06-10T00:21:39;18.70;99.90
6518;DHT22;3292;48.944;9.240;2023-06-10T00:24:07;18.70;99.90
6518;DHT22;3292;48.944;9.240;2023-06-10T00:26:37;18.60;99.90
6518;DHT22;3292;48.944;9.240;2023-06-10T00:29:05;18.60;99.90
6518;DHT22;3292;48.944;9.240;2023-06-10T00:31:33;18.50;99.90
6518;DHT22;3292;48.944;9.240;2023-06-10T00:34:00;18.50;99.90
6518;DHT22;3292;48.944;9.240;2023-06-10T00:36:26;18.40;99.90
6518;DHT22;3292;48.944;9.240;2023-06-10T00:38:53;18.40;99.90
6518;DHT22;3292;48.944;9.240;2023-06-10T00:41:20;18.30;99.90
6518;DHT22;3292;48.944;9.240;2023-06-10T00:43:47;18.30;99.90
6518;DHT22;3292;48.944;9.240;2023-06-10T00:46:16;18.30;99.90
6518;DHT22;3292;48.944;9.240;2023-06-10T00:48:44;18.30;99.90
6518;DHT22;3292;48.944;9.240;2023-06-10T00:51:11;18.30;99.90
6518;DHT22;3292;48.944;9.240;2023-06-10T00:53:40;18.40;99.90
6518;DHT22;3292;48.944;9.240;2023-06-10T00:56:08;18.40;99.90
6518;DHT22;3292;48.944;9.240;2023-06-10T00:58:35;18.40;99.90
6518;DHT22;3292;48.944;9.240;2023-06-10T01:01:03;18.30;99.90
6518;DHT22;3292;48.944;9.240;2023-06-10T01:03:31;18.20;99.90
6518;DHT22;3292;48.944;9.240;2023-06-10T01:06:06;18.20;99.90
6518;DHT22;3292;48.944;9.240;2023-06-10T01:08:40;18.10;99.90
6518;DHT22;3292;48.944;9.240;2023-06-10T01:11:14;18.00;99.90
6518;DHT22;3292;48.944;9.240;2023-06-10T01:13:44;17.90;99.90
6518;DHT22;3292;48.944;9.240;2023-06-10T01:16:12;17.80;99.90
6518;DHT22;3292;48.944;9.240;2023-06-10T01:18:40;17.70;99.90
6518;DHT22;3292;48.944;9.240;2023-06-10T01:21:08;17.70;99.90
6518;DHT22;3292;48.944;9.240;2023-06-10T01:23:36;17.60;99.90
6518;DHT22;3292;48.944;9.240;2023-06-10T01:26:07;17.50;99.90
6518;DHT22;3292;48.944;9.240;2023-06-10T01:28:40;17.50;99.90
6518;DHT22;3292;48.944;9.240;2023-06-10T01:31:16;17.40;99.90
6518;DHT22;3292;48.944;9.240;2023-06-10T01:33:47;17.40;99.90
6518;DHT22;3292;48.944;9.240;2023-06-10T01:36:17;17.30;99.90
6518;DHT22;3292;48.944;9.240;2023-06-10T01:38:47;17.30;99.90
6518;DHT22;3292;48.944;9.240;2023-06-10T01:41:16;17.30;99.90
6518;DHT22;3292;48.944;9.240;2023-06-10T01:43:44;17.30;99.90
6518;DHT22;3292;48.944;9.240;2023-06-10T01:46:11;17.20;99.90
6518;DHT22;3292;48.944;9.240;2023-06-10T01:48:38;17.20;99.90
6518;DHT22;3292;48.944;9.240;2023-06-10T01:51:05;17.20;99.90
6518;DHT22;3292;48.944;9.240;2023-06-10T01:53:32;17.20;99.90
6518;DHT22;3292;48.944;9.240;2023-06-10T01:56:00;17.10;99.90
6518;DHT22;3292;48.944;9.240;2023-06-10T01:58:27;17.10;99.90
6518;DHT22;3292;48.944;9.240;2023-06-10T02:00:53;17.10;99.90
6518;DHT22;3292;48.944;9.240;2023-06-10T02:03:20;17.10;99.90
6518;DHT22;3292;48.944;9.240;2023-06-10T02:05:47;17.10;99.90
6518;DHT22;3292;48.944;9.240;2023-06-10T02:08:14;17.00;99.90
6518;DHT22;3292;48.944;9.240;2023-06-10T02:10:41;16.90;99.90
6518;DHT22;3292;48.944;9.240;2023-06-10T02:13:09;16.90;99.90
6518;DHT22;3292;48.944;9.240;2023-06-10T02:15:35;16.90;99.90
6518;DHT22;3292;48.944;9.240;2023-06-10T02:18:02;16.80;99.90
6518;DHT22;3292;48.944;9.240;2023-06-10T02:20:29;16.90;99.90
6518;DHT22;3292;48.944;9.240;2023-06-10T02:22:56;16.80;99.90
6518;DHT22;3292;48.944;9.240;2023-06-10T02:25:23;16.80;99.90
6518;DHT22;3292;48.944;9.240;2023-06-10T02:27:50;16.80;99.90
6518;DHT22;3292;48.944;9.240;2023-06-10T02:30:18;16.80;99.90
6518;DHT22;3292;48.944;9.240;2023-06-10T02:32:45;16.80;99.90
6518;DHT22;3292;48.944;9.240;2023-06-10T02:35:13;16.70;99.90
6518;DHT22;3292;48.944;9.240;2023-06-10T02:37:40;16.70;99.90
6518;DHT22;3292;48.944;9.240;2023-06-10T02:40:09;16.60;99.90
6518;DHT22;3292;48.944;9.240;2023-06-10T02:42:36;16.60;99.90
6518;DHT22;3292;48.944;9.240;2023-06-10T02:45:04;16.50;99.90
6518;DHT22;3292;48.944;9.240;2023-06-10T02:47:32;16.50;99.90
6518;DHT22;3292;48.944;9.240;2023-06-10T02:49:59;16.50;99.90
6518;DHT22;3292;48.944;9.240;2023-06-10T02:52:25;16.50;99.90
6518;DHT22;3292;48.944;9.240;2023-06-10T02:54:52;16.40;99.90
6518;DHT22;3292;48.944;9.240;2023-06-10T02:57:19;16.40;99.90
6518;DHT22;3292;48.944;9.240;2023-06-10T02:59:46;16.40;99.90
6518;DHT22;3292;48.944;9.240;2023-06-10T03:02:13;16.30;99.90
6518;DHT22;3292;48.944;9.240;2023-06-10T03:04:41;16.30;99.90
6518;DHT22;3292;48.944;9.240;2023-06-10T03:07:09;16.20;99.90
6518;DHT22;3292;48.944;9.240;2023-06-10T03:09:36;16.30;99.90
6518;DHT22;3292;48.944;9.240;2023-06-10T03:12:03;16.30;99.90
6518;DHT22;3292;48.944;9.240;2023-06-10T03:14:31;16.20;99.90
6518;DHT22;3292;48.944;9.240;2023-06-10T03:16:58;16.20;99.90
6518;DHT22;3292;48.944;9.240;2023-06-10T03:19:25;16.10;99.90
6518;DHT22;3292;48.944;9.240;2023-06-10T03:22:07;16.10;99.90
6518;DHT22;3292;48.944;9.240;2023-06-10T03:24:34;16.10;99.90
6518;DHT22;3292;48.944;9.240;2023-06-10T03:27:06;16.20;99.90
6518;DHT22;3292;48.944;9.240;2023-06-10T03:29:32;16.10;99.90
6518;DHT22;3292;48.944;9.240;2023-06-10T03:31:59;16.10;99.90
6518;DHT22;3292;48.944;9.240;2023-06-10T03:34:26;16.10;99.90
6518;DHT22;3292;48.944;9.240;2023-06-10T03:36:55;16.10;99.90
6518;DHT22;3292;48.944;9.240;2023-06-10T03:39:21;16.00;99.90
6518;DHT22;3292;48.944;9.240;2023-06-10T03:41:48;16.00;99.90
6518;DHT22;3292;48.944;9.240;2023-06-10T03:44:15;16.00;99.90
6518;DHT22;3292;48.944;9.240;2023-06-10T03:46:42;16.00;99.90
6518;DHT22;3292;48.944;9.240;2023-06-10T03:49:09;16.00;99.90
6518;DHT22;3292;48.944;9.240;2023-06-10T03:51:36;16.00;99.90
6518;DHT22;3292;48.944;9.240;2023-06-10T03:54:04;16.00;99.90
6518;DHT22;3292;48.944;9.240;2023-06-10T03:56:31;16.00;99.90
6518;DHT22;3292;48.944;9.240;2023-06-10T03:58:58;16.00;99.90
6518;DHT22;3292;48.944;9.240;2023-06-10T04:01:25;16.00;99.90
6518;DHT22;3292;48.944;9.240;2023-06-10T04:03:53;16.10;99.90
6518;DHT22;3292;48.944;9.240;2023-06-10T04:06:20;16.10;99.90
6518;DHT22;3292;48.944;9.240;2023-06-10T04:08:50;16.10;99.90
6518;DHT22;3292;48.944;9.240;2023-06-10T04:11:18;16.10;99.90
6518;DHT22;3292;48.944;9.240;2023-06-10T04:13:45;16.10;99.90
6518;DHT22;3292;48.944;9.240;2023-06-10T04:16:12;16.10;99.90
6518;DHT22;3292;48.944;9.240;2023-06-10T04:18:39;16.10;99.90
6518;DHT22;3292;48.944;9.240;2023-06-10T04:21:07;16.20;99.90
6518;DHT22;3292;48.944;9.240;2023-06-10T04:23:35;16.20;99.90
6518;DHT22;3292;48.944;9.240;2023-06-10T04:26:02;16.20;99.90
6518;DHT22;3292;48.944;9.240;2023-06-10T04:28:30;16.20;99.90
6518;DHT22;3292;48.944;9.240;2023-06-10T04:30:57;16.20;99.90
6518;DHT22;3292;48.944;9.240;2023-06-10T04:33:24;16.30;99.90
6518;DHT22;3292;48.944;9.240;2023-06-10T04:35:50;16.30;99.90
6518;DHT22;3292;48.944;9.240;2023-06-10T04:38:17;16.30;99.90
6518;DHT22;3292;48.944;9.240;2023-06-10T04:40:44;16.40;99.90
6518;DHT22;3292;48.944;9.240;2023-06-10T04:43:11;16.50;99.90
6518;DHT22;3292;48.944;9.240;2023-06-10T04:45:39;16.50;99.90
6518;DHT22;3292;48.944;9.240;2023-06-10T04:48:10;16.60;99.90
6518;DHT22;3292;48.944;9.240;2023-06-10T04:50:37;16.60;99.90
6518;DHT22;3292;48.944;9.240;2023-06-10T04:53:04;16.70;99.90
6518;DHT22;3292;48.944;9.240;2023-06-10T04:55:31;16.70;99.90
6518;DHT22;3292;48.944;9.240;2023-06-10T04:57:58;16.80;99.90
6518;DHT22;3292;48.944;9.240;2023-06-10T05:00:25;16.90;99.90
6518;DHT22;3292;48.944;9.240;2023-06-10T05:02:53;16.90;99.90
6518;DHT22;3292;48.944;9.240;2023-06-10T05:05:21;17.00;99.90
6518;DHT22;3292;48.944;9.240;2023-06-10T05:07:48;17.00;99.90
6518;DHT22;3292;48.944;9.240;2023-06-10T05:10:15;17.00;99.90
6518;DHT22;3292;48.944;9.240;2023-06-10T05:12:42;17.10;99.90
6518;DHT22;3292;48.944;9.240;2023-06-10T05:15:09;17.10;99.90
6518;DHT22;3292;48.944;9.240;2023-06-10T05:17:36;17.10;99.90
6518;DHT22;3292;48.944;9.240;2023-06-10T05:20:05;17.30;99.90
6518;DHT22;3292;48.944;9.240;2023-06-10T05:22:33;17.30;99.90
6518;DHT22;3292;48.944;9.240;2023-06-10T05:25:01;17.30;99.90
6518;DHT22;3292;48.944;9.240;2023-06-10T05:27:28;17.30;99.90
6518;DHT22;3292;48.944;9.240;2023-06-10T05:29:55;17.40;99.90
6518;DHT22;3292;48.944;9.240;2023-06-10T05:32:22;17.40;99.90
6518;DHT22;3292;48.944;9.240;2023-06-10T05:34:48;17.50;99.90
6518;DHT22;3292;48.944;9.240;2023-06-10T05:37:17;17.60;99.90
6518;DHT22;3292;48.944;9.240;2023-06-10T05:39:43;17.70;99.90
6518;DHT22;3292;48.944;9.240;2023-06-10T05:42:10;17.90;99.90
6518;DHT22;3292;48.944;9.240;2023-06-10T05:44:37;18.00;99.90
6518;DHT22;3292;48.944;9.240;2023-06-10T05:47:04;18.20;99.90
6518;DHT22;3292;48.944;9.240;2023-06-10T05:49:31;18.20;99.90
6518;DHT22;3292;48.944;9.240;2023-06-10T05:51:58;18.30;99.90
6518;DHT22;3292;48.944;9.240;2023-06-10T05:54:26;18.50;99.90
6518;DHT22;3292;48.944;9.240;2023-06-10T05:56:53;18.70;99.90
6518;DHT22;3292;48.944;9.240;2023-06-10T05:59:20;18.80;99.90
6518;DHT22;3292;48.944;9.240;2023-06-10T06:01:48;19.20;99.90
6518;DHT22;3292;48.944;9.240;2023-06-10T06:04:15;20.20;99.90
6518;DHT22;3292;48.944;9.240;2023-06-10T06:06:42;21.20;99.90
6518;DHT22;3292;48.944;9.240;2023-06-10T06:09:09;22.20;99.90
6518;DHT22;3292;48.944;9.240;2023-06-10T06:11:37;23.20;99.90
6518;DHT22;3292;48.944;9.240;2023-06-10T06:14:04;24.30;99.90
6518;DHT22;3292;48.944;9.240;2023-06-10T06:16:30;25.30;99.90
6518;DHT22;3292;48.944;9.240;2023-06-10T06:18:57;26.10;99.90
6518;DHT22;3292;48.944;9.240;2023-06-10T06:21:24;26.90;99.90
6518;DHT22;3292;48.944;9.240;2023-06-10T06:23:51;27.50;99.90
6518;DHT22;3292;48.944;9.240;2023-06-10T06:26:18;28.00;99.90
6518;DHT22;3292;48.944;9.240;2023-06-10T06:28:46;28.00;99.90
6518;DHT22;3292;48.944;9.240;2023-06-10T06:31:13;27.50;99.90
6518;DHT22;3292;48.944;9.240;2023-06-10T06:33:39;27.40;99.90
6518;DHT22;3292;48.944;9.240;2023-06-10T06:36:06;27.60;99.90
6518;DHT22;3292;48.944;9.240;2023-06-10T06:38:33;27.80;99.90
6518;DHT22;3292;48.944;9.240;2023-06-10T06:41:00;27.70;99.90
6518;DHT22;3292;48.944;9.240;2023-06-10T06:43:28;28.10;99.90
6518;DHT22;3292;48.944;9.240;2023-06-10T06:45:57;28.10;99.90
6518;DHT22;3292;48.944;9.240;2023-06-10T06:48:24;29.00;99.90
6518;DHT22;3292;48.944;9.240;2023-06-10T06:50:51;29.10;99.40
6518;DHT22;3292;48.944;9.240;2023-06-10T06:53:18;29.30;98.60
6518;DHT22;3292;48.944;9.240;2023-06-10T06:55:45;29.10;98.80
6518;DHT22;3292;48.944;9.240;2023-06-10T06:58:11;29.60;98.00
6518;DHT22;3292;48.944;9.240;2023-06-10T07:00:38;29.50;97.90
6518;DHT22;3292;48.944;9.240;2023-06-10T07:03:06;29.20;96.90
6518;DHT22;3292;48.944;9.240;2023-06-10T07:05:33;29.10;96.40
6518;DHT22;3292;48.944;9.240;2023-06-10T07:08:00;28.70;97.40
6518;DHT22;3292;48.944;9.240;2023-06-10T07:10:27;28.60;98.40
6518;DHT22;3292;48.944;9.240;2023-06-10T07:12:54;28.80;98.70
6518;DHT22;3292;48.944;9.240;2023-06-10T07:15:21;29.10;97.50
6518;DHT22;3292;48.944;9.240;2023-06-10T07:17:48;29.20;96.70
6518;DHT22;3292;48.944;9.240;2023-06-10T07:20:17;28.90;97.00
6518;DHT22;3292;48.944;9.240;2023-06-10T07:22:44;29.10;96.50
6518;DHT22;3292;48.944;9.240;2023-06-10T07:25:11;29.00;97.30
6518;DHT22;3292;48.944;9.240;2023-06-10T07:27:37;29.60;95.90
6518;DHT22;3292;48.944;9.240;2023-06-10T07:30:05;29.30;97.00
6518;DHT22;3292;48.944;9.240;2023-06-10T07:32:34;28.70;97.70
6518;DHT22;3292;48.944;9.240;2023-06-10T07:35:00;28.60;96.60
6518;DHT22;3292;48.944;9.240;2023-06-10T07:37:28;28.60;97.10
6518;DHT22;3292;48.944;9.240;2023-06-10T07:39:56;28.50;95.80
6518;DHT22;3292;48.944;9.240;2023-06-10T07:42:23;28.70;95.30
6518;DHT22;3292;48.944;9.240;2023-06-10T07:44:49;28.70;96.20
6518;DHT22;3292;48.944;9.240;2023-06-10T07:47:16;28.40;96.80
6518;DHT22;3292;48.944;9.240;2023-06-10T07:49:43;28.00;96.00
6518;DHT22;3292;48.944;9.240;2023-06-10T07:52:10;27.60;96.30
6518;DHT22;3292;48.944;9.240;2023-06-10T07:54:38;27.70;98.90
6518;DHT22;3292;48.944;9.240;2023-06-10T07:57:05;27.50;98.80
6518;DHT22;3292;48.944;9.240;2023-06-10T07:59:33;27.60;99.70
6518;DHT22;3292;48.944;9.240;2023-06-10T08:02:00;27.70;99.90
6518;DHT22;3292;48.944;9.240;2023-06-10T08:04:26;27.60;98.80
6518;DHT22;3292;48.944;9.240;2023-06-10T08:06:53;27.60;98.70
6518;DHT22;3292;48.944;9.240;2023-06-10T08:09:20;27.70;98.80
6518;DHT22;3292;48.944;9.240;2023-06-10T08:11:50;27.60;99.20
6518;DHT22;3292;48.944;9.240;2023-06-10T08:14:17;27.80;97.30
6518;DHT22;3292;48.944;9.240;2023-06-10T08:16:44;27.60;98.00
6518;DHT22;3292;48.944;9.240;2023-06-10T08:19:11;27.50;99.40
6518;DHT22;3292;48.944;9.240;2023-06-10T08:21:38;27.50;97.90
6518;DHT22;3292;48.944;9.240;2023-06-10T08:24:05;27.60;99.10
6518;DHT22;3292;48.944;9.240;2023-06-10T08:26:32;27.70;99.50
6518;DHT22;3292;48.944;9.240;2023-06-10T08:29:00;27.70;98.70
6518;DHT22;3292;48.944;9.240;2023-06-10T08:31:27;27.70;98.20
6518;DHT22;3292;48.944;9.240;2023-06-10T08:33:54;27.50;99.60
6518;DHT22;3292;48.944;9.240;2023-06-10T08:36:21;27.50;99.50
6518;DHT22;3292;48.944;9.240;2023-06-10T08:38:47;27.60;99.30
6518;DHT22;3292;48.944;9.240;2023-06-10T08:41:17;27.80;99.90
6518;DHT22;3292;48.944;9.240;2023-06-10T08:43:59;27.70;98.30
6518;DHT22;3292;48.944;9.240;2023-06-10T08:46:31;27.80;99.10
6518;DHT22;3292;48.944;9.240;2023-06-10T08:49:00;28.00;98.00
6518;DHT22;3292;48.944;9.240;2023-06-10T08:51:28;27.90;98.00
6518;DHT22;3292;48.944;9.240;2023-06-10T08:54:01;28.00;97.60
6518;DHT22;3292;48.944;9.240;2023-06-10T08:56:28;28.00;97.50
6518;DHT22;3292;48.944;9.240;2023-06-10T08:58:56;28.00;96.80
6518;DHT22;3292;48.944;9.240;2023-06-10T09:01:24;28.10;97.10
6518;DHT22;3292;48.944;9.240;2023-06-10T09:03:52;28.20;96.40
6518;DHT22;3292;48.944;9.240;2023-06-10T09:06:19;28.00;95.10
6518;DHT22;3292;48.944;9.240;2023-06-10T09:08:46;28.10;96.00
6518;DHT22;3292;48.944;9.240;2023-06-10T09:11:13;28.20;96.20
6518;DHT22;3292;48.944;9.240;2023-06-10T09:13:40;28.30;95.10
6518;DHT22;3292;48.944;9.240;2023-06-10T09:16:07;27.80;94.00
6518;DHT22;3292;48.944;9.240;2023-06-10T09:18:35;27.60;95.00
6518;DHT22;3292;48.944;9.240;2023-06-10T09:21:03;27.90;95.90
6518;DHT22;3292;48.944;9.240;2023-06-10T09:23:30;27.50;93.80
6518;DHT22;3292;48.944;9.240;2023-06-10T09:25:58;27.20;94.90
6518;DHT22;3292;48.944;9.240;2023-06-10T09:28:25;27.10;96.00
6518;DHT22;3292;48.944;9.240;2023-06-10T09:31:02;27.30;95.20
6518;DHT22;3292;48.944;9.240;2023-06-10T09:33:29;27.70;96.30
6518;DHT22;3292;48.944;9.240;2023-06-10T09:35:56;28.10;97.10
6518;DHT22;3292;48.944;9.240;2023-06-10T09:38:31;27.70;94.80
6518;DHT22;3292;48.944;9.240;2023-06-10T09:40:58;27.80;97.00
6518;DHT22;3292;48.944;9.240;2023-06-10T09:43:39;27.80;95.40
6518;DHT22;3292;48.944;9.240;2023-06-10T09:46:07;27.80;95.50
6518;DHT22;3292;48.944;9.240;2023-06-10T09:48:35;28.00;96.80
6518;DHT22;3292;48.944;9.240;2023-06-10T09:51:09;28.30;96.00
6518;DHT22;3292;48.944;9.240;2023-06-10T09:53:37;28.60;95.30
6518;DHT22;3292;48.944;9.240;2023-06-10T09:56:05;28.60;94.40
6518;DHT22;3292;48.944;9.240;2023-06-10T09:58:36;28.50;94.80
6518;DHT22;3292;48.944;9.240;2023-06-10T10:01:05;28.70;93.50
6518;DHT22;3292;48.944;9.240;2023-06-10T10:03:32;28.90;94.60
6518;DHT22;3292;48.944;9.240;2023-06-10T10:05:59;29.00;93.50
6518;DHT22;3292;48.944;9.240;2023-06-10T10:08:27;28.20;91.80
6518;DHT22;3292;48.944;9.240;2023-06-10T10:10:56;28.30;93.60
6518;DHT22;3292;48.944;9.240;2023-06-10T10:13:26;28.50;95.50
6518;DHT22;3292;48.944;9.240;2023-06-10T10:15:54;28.60;93.80
6518;DHT22;3292;48.944;9.240;2023-06-10T10:18:24;28.80;94.40
6518;DHT22;3292;48.944;9.240;2023-06-10T10:20:58;29.30;93.90
6518;DHT22;3292;48.944;9.240;2023-06-10T10:23:31;29.30;92.60
6518;DHT22;3292;48.944;9.240;2023-06-10T10:26:03;29.20;92.50
6518;DHT22;3292;48.944;9.240;2023-06-10T10:28:36;29.30;93.40
6518;DHT22;3292;48.944;9.240;2023-06-10T10:31:08;29.50;93.50
6518;DHT22;3292;48.944;9.240;2023-06-10T10:33:51;29.70;91.90
6518;DHT22;3292;48.944;9.240;2023-06-10T10:36:19;29.60;91.10
6518;DHT22;3292;48.944;9.240;2023-06-10T10:38:47;29.60;91.60
6518;DHT22;3292;48.944;9.240;2023-06-10T10:41:16;29.40;91.30
6518;DHT22;3292;48.944;9.240;2023-06-10T10:43:45;29.60;91.40
6518;DHT22;3292;48.944;9.240;2023-06-10T10:46:13;29.40;91.30
6518;DHT22;3292;48.944;9.240;2023-06-10T10:48:40;29.20;91.30
6518;DHT22;3292;48.944;9.240;2023-06-10T10:51:08;29.40;92.10
6518;DHT22;3292;48.944;9.240;2023-06-10T10:53:37;29.40;92.00
6518;DHT22;3292;48.944;9.240;2023-06-10T10:56:07;29.50;91.20
6518;DHT22;3292;48.944;9.240;2023-06-10T10:58:36;29.50;91.70
6518;DHT22;3292;48.944;9.240;2023-06-10T11:01:13;29.70;91.20
6518;DHT22;3292;48.944;9.240;2023-06-10T11:03:43;29.90;91.70
6518;DHT22;3292;48.944;9.240;2023-06-10T11:06:13;29.90;90.60
6518;DHT22;3292;48.944;9.240;2023-06-10T11:08:47;29.30;89.80
6518;DHT22;3292;48.944;9.240;2023-06-10T11:11:19;29.10;90.90
6518;DHT22;3292;48.944;9.240;2023-06-10T11:14:05;28.90;90.10
6518;DHT22;3292;48.944;9.240;2023-06-10T11:16:39;28.70;90.90
6518;DHT22;3292;48.944;9.240;2023-06-10T11:19:06;28.50;91.00
6518;DHT22;3292;48.944;9.240;2023-06-10T11:21:45;28.70;91.20
6518;DHT22;3292;48.944;9.240;2023-06-10T11:24:23;29.00;91.40
6518;DHT22;3292;48.944;9.240;2023-06-10T11:26:50;29.60;90.30
6518;DHT22;3292;48.944;9.240;2023-06-10T11:29:18;29.90;89.40
6518;DHT22;3292;48.944;9.240;2023-06-10T11:31:49;30.30;90.80
6518;DHT22;3292;48.944;9.240;2023-06-10T11:34:22;30.60;90.00
6518;DHT22;3292;48.944;9.240;2023-06-10T11:36:51;30.90;87.60
6518;DHT22;3292;48.944;9.240;2023-06-10T11:39:19;31.10;88.00
6518;DHT22;3292;48.944;9.240;2023-06-10T11:41:47;31.10;88.60
6518;DHT22;3292;48.944;9.240;2023-06-10T11:44:14;31.40;86.90
6518;DHT22;3292;48.944;9.240;2023-06-10T11:46:42;31.50;85.20
6518;DHT22;3292;48.944;9.240;2023-06-10T11:49:10;31.10;86.00
6518;DHT22;3292;48.944;9.240;2023-06-10T11:51:38;31.00;84.60
6518;DHT22;3292;48.944;9.240;2023-06-10T11:54:07;30.90;85.90
6518;DHT22;3292;48.944;9.240;2023-06-10T11:56:35;31.10;85.90
6518;DHT22;3292;48.944;9.240;2023-06-10T11:59:04;31.30;83.40
6518;DHT22;3292;48.944;9.240;2023-06-10T12:01:34;31.10;84.40
6518;DHT22;3292;48.944;9.240;2023-06-10T12:04:04;30.70;81.60
6518;DHT22;3292;48.944;9.240;2023-06-10T12:06:42;30.40;84.30
6518;DHT22;3292;48.944;9.240;2023-06-10T12:09:20;30.40;83.50
6518;DHT22;3292;48.944;9.240;2023-06-10T12:11:49;30.50;80.90
6518;DHT22;3292;48.944;9.240;2023-06-10T12:14:50;30.20;82.30
6518;DHT22;3292;48.944;9.240;2023-06-10T12:17:19;30.50;82.30
6518;DHT22;3292;48.944;9.240;2023-06-10T12:19:48;30.70;81.80
6518;DHT22;3292;48.944;9.240;2023-06-10T12:22:15;30.80;83.00
6518;DHT22;3292;48.944;9.240;2023-06-10T12:24:45;31.00;83.30
6518;DHT22;3292;48.944;9.240;2023-06-10T12:27:12;31.10;79.70
6518;DHT22;3292;48.944;9.240;2023-06-10T12:29:39;31.10;81.80
6518;DHT22;3292;48.944;9.240;2023-06-10T12:32:07;30.90;79.70
6518;DHT22;3292;48.944;9.240;2023-06-10T12:34:36;30.70;80.70
6518;DHT22;3292;48.944;9.240;2023-06-10T12:37:06;30.80;82.80
6518;DHT22;3292;48.944;9.240;2023-06-10T12:39:39;31.00;80.70
6518;DHT22;3292;48.944;9.240;2023-06-10T12:42:07;30.80;79.90
6518;DHT22;3292;48.944;9.240;2023-06-10T12:44:39;31.00;80.40
6518;DHT22;3292;48.944;9.240;2023-06-10T12:47:09;31.00;79.90
6518;DHT22;3292;48.944;9.240;2023-06-10T12:49:38;30.60;79.30
6518;DHT22;3292;48.944;9.240;2023-06-10T12:52:06;30.60;80.60
6518;DHT22;3292;48.944;9.240;2023-06-10T12:54:34;30.70;79.00
6518;DHT22;3292;48.944;9.240;2023-06-10T12:57:01;31.00;79.50
6518;DHT22;3292;48.944;9.240;2023-06-10T12:59:28;31.00;79.00
6518;DHT22;3292;48.944;9.240;2023-06-10T13:01:57;30.80;76.80
6518;DHT22;3292;48.944;9.240;2023-06-10T13:04:23;30.60;77.00
6518;DHT22;3292;48.944;9.240;2023-06-10T13:06:51;30.60;77.60
6518;DHT22;3292;48.944;9.240;2023-06-10T13:09:19;30.30;77.50
6518;DHT22;3292;48.944;9.240;2023-06-10T13:11:45;30.00;80.00
6518;DHT22;3292;48.944;9.240;2023-06-10T13:14:12;29.80;79.50
6518;DHT22;3292;48.944;9.240;2023-06-10T13:16:40;29.70;79.40
6518;DHT22;3292;48.944;9.240;2023-06-10T13:19:06;29.50;79.10
6518;DHT22;3292;48.944;9.240;2023-06-10T13:21:33;29.00;79.90
6518;DHT22;3292;48.944;9.240;2023-06-10T13:24:00;28.80;82.30
6518;DHT22;3292;48.944;9.240;2023-06-10T13:26:29;29.20;82.20
6518;DHT22;3292;48.944;9.240;2023-06-10T13:28:55;29.20;79.90
6518;DHT22;3292;48.944;9.240;2023-06-10T13:31:22;29.00;78.40
6518;DHT22;3292;48.944;9.240;2023-06-10T13:33:49;28.90;81.60
6518;DHT22;3292;48.944;9.240;2023-06-10T13:36:16;29.00;81.30
6518;DHT22;3292;48.944;9.240;2023-06-10T13:38:43;29.40;80.20
6518;DHT22;3292;48.944;9.240;2023-06-10T13:41:10;29.70;81.10
6518;DHT22;3292;48.944;9.240;2023-06-10T13:43:39;30.10;80.80
6518;DHT22;3292;48.944;9.240;2023-06-10T13:46:06;30.30;81.50
6518;DHT22;3292;48.944;9.240;2023-06-10T13:48:32;30.20;77.20
6518;DHT22;3292;48.944;9.240;2023-06-10T13:51:00;29.90;78.70
6518;DHT22;3292;48.944;9.240;2023-06-10T13:53:26;29.70;78.30
6518;DHT22;3292;48.944;9.240;2023-06-10T13:55:53;29.50;78.00
6518;DHT22;3292;48.944;9.240;2023-06-10T13:58:20;29.20;77.70
6518;DHT22;3292;48.944;9.240;2023-06-10T14:00:48;29.00;79.20
6518;DHT22;3292;48.944;9.240;2023-06-10T14:03:15;28.70;80.20
6518;DHT22;3292;48.944;9.240;2023-06-10T14:05:42;28.60;79.40
6518;DHT22;3292;48.944;9.240;2023-06-10T14:08:09;28.70;79.70
6518;DHT22;3292;48.944;9.240;2023-06-10T14:10:35;28.50;79.50
6518;DHT22;3292;48.944;9.240;2023-06-10T14:13:02;28.60;79.50
6518;DHT22;3292;48.944;9.240;2023-06-10T14:15:29;28.70;80.20
6518;DHT22;3292;48.944;9.240;2023-06-10T14:17:59;28.80;78.90
6518;DHT22;3292;48.944;9.240;2023-06-10T14:20:25;29.00;79.70
6518;DHT22;3292;48.944;9.240;2023-06-10T14:22:56;29.10;78.50
6518;DHT22;3292;48.944;9.240;2023-06-10T14:25:23;29.10;81.50
6518;DHT22;3292;48.944;9.240;2023-06-10T14:27:50;29.30;80.80
6518;DHT22;3292;48.944;9.240;2023-06-10T14:30:17;29.60;79.60
6518;DHT22;3292;48.944;9.240;2023-06-10T14:32:44;29.70;79.70
6518;DHT22;3292;48.944;9.240;2023-06-10T14:35:12;29.70;78.20
6518;DHT22;3292;48.944;9.240;2023-06-10T14:37:39;29.60;77.90
6518;DHT22;3292;48.944;9.240;2023-06-10T14:40:07;29.60;77.10
6518;DHT22;3292;48.944;9.240;2023-06-10T14:42:34;29.40;80.40
6518;DHT22;3292;48.944;9.240;2023-06-10T14:45:01;29.20;79.10
6518;DHT22;3292;48.944;9.240;2023-06-10T14:47:27;29.00;79.40
6518;DHT22;3292;48.944;9.240;2023-06-10T14:49:54;28.70;79.80
6518;DHT22;3292;48.944;9.240;2023-06-10T14:52:22;28.80;79.90
6518;DHT22;3292;48.944;9.240;2023-06-10T14:54:49;29.00;80.80
6518;DHT22;3292;48.944;9.240;2023-06-10T14:57:16;29.30;81.50
6518;DHT22;3292;48.944;9.240;2023-06-10T14:59:43;29.40;80.10
6518;DHT22;3292;48.944;9.240;2023-06-10T15:02:10;29.70;81.10
6518;DHT22;3292;48.944;9.240;2023-06-10T15:04:36;29.70;80.60
6518;DHT22;3292;48.944;9.240;2023-06-10T15:07:03;29.50;78.80
6518;DHT22;3292;48.944;9.240;2023-06-10T15:09:32;29.20;78.40
6518;DHT22;3292;48.944;9.240;2023-06-10T15:11:58;29.00;79.40
6518;DHT22;3292;48.944;9.240;2023-06-10T15:14:26;29.00;78.90
6518;DHT22;3292;48.944;9.240;2023-06-10T15:16:52;29.00;79.10
6518;DHT22;3292;48.944;9.240;2023-06-10T15:19:19;28.90;79.80
6518;DHT22;3292;48.944;9.240;2023-06-10T15:21:46;28.70;80.50
6518;DHT22;3292;48.944;9.240;2023-06-10T15:24:13;28.50;81.50
6518;DHT22;3292;48.944;9.240;2023-06-10T15:26:41;28.70;83.00
6518;DHT22;3292;48.944;9.240;2023-06-10T15:29:08;28.80;81.30
6518;DHT22;3292;48.944;9.240;2023-06-10T15:31:36;28.90;81.10
6518;DHT22;3292;48.944;9.240;2023-06-10T15:34:02;28.90;80.60
6518;DHT22;3292;48.944;9.240;2023-06-10T15:36:30;29.00;80.30
6518;DHT22;3292;48.944;9.240;2023-06-10T15:39:01;29.00;79.10
6518;DHT22;3292;48.944;9.240;2023-06-10T15:41:28;29.00;79.10
6518;DHT22;3292;48.944;9.240;2023-06-10T15:43:56;29.10;79.00
6518;DHT22;3292;48.944;9.240;2023-06-10T15:46:25;29.00;77.40
6518;DHT22;3292;48.944;9.240;2023-06-10T15:48:51;28.80;77.70
6518;DHT22;3292;48.944;9.240;2023-06-10T15:51:19;28.60;79.60
6518;DHT22;3292;48.944;9.240;2023-06-10T15:53:46;28.50;79.50
6518;DHT22;3292;48.944;9.240;2023-06-10T15:56:13;28.50;80.00
6518;DHT22;3292;48.944;9.240;2023-06-10T15:58:40;28.60;80.30
6518;DHT22;3292;48.944;9.240;2023-06-10T16:01:08;28.70;80.70
6518;DHT22;3292;48.944;9.240;2023-06-10T16:03:37;28.90;80.70
6518;DHT22;3292;48.944;9.240;2023-06-10T16:06:03;29.00;80.60
6518;DHT22;3292;48.944;9.240;2023-06-10T16:08:30;29.10;81.50